createdAt,value
2022-07-26T00:01:21.131Z,21.02
2022-07-26T00:03:49.254Z,21.00
2022-07-26T00:06:16.409Z,20.92
2022-07-26T00:08:47.080Z,20.81
2022-07-26T00:11:14.116Z,20.67
2022-07-26T00:13:40.706Z,20.53
2022-07-26T00:16:07.362Z,20.50
2022-07-26T00:18:33.935Z,20.53
2022-07-26T00:21:00.438Z,20.55
2022-07-26T00:23:27.793Z,20.65
2022-07-26T00:25:54.437Z,20.62
2022-07-26T00:28:21.115Z,20.60
2022-07-26T00:30:47.846Z,20.58
2022-07-26T00:33:14.385Z,20.47
2022-07-26T00:35:41.159Z,20.55
2022-07-26T00:38:07.948Z,20.58
2022-07-26T00:40:36.037Z,20.55
2022-07-26T00:43:02.694Z,20.56
2022-07-26T00:45:29.256Z,20.59
2022-07-26T00:47:55.906Z,20.49
2022-07-26T00:50:22.466Z,20.57
2022-07-26T00:52:50.200Z,20.57
2022-07-26T00:55:17.994Z,20.60
2022-07-26T00:57:44.740Z,20.52
2022-07-26T01:00:14.414Z,20.55
2022-07-26T01:02:40.977Z,20.57
2022-07-26T01:08:48.405Z,20.65
2022-07-26T01:11:14.869Z,20.66
2022-07-26T01:13:47.514Z,20.64
2022-07-26T01:16:14.297Z,20.64
2022-07-26T01:18:41.017Z,20.67
2022-07-26T01:21:13.240Z,20.68
2022-07-26T01:23:41.770Z,20.68
2022-07-26T01:26:08.553Z,20.63
2022-07-26T01:28:40.351Z,20.59
2022-07-26T01:31:08.036Z,20.62
2022-07-26T01:33:35.040Z,20.65
2022-07-26T01:36:01.806Z,20.60
2022-07-26T01:38:28.612Z,20.48
2022-07-26T01:40:55.218Z,20.51
2022-07-26T01:43:21.778Z,20.50
2022-07-26T01:45:48.518Z,20.44
2022-07-26T01:48:15.266Z,20.39
2022-07-26T01:50:42.288Z,20.32
2022-07-26T01:53:09.001Z,20.29
2022-07-26T01:55:36.088Z,20.24
2022-07-26T01:58:05.129Z,20.28
2022-07-26T02:00:32.192Z,20.16
2022-07-26T02:02:58.892Z,20.10
2022-07-26T02:05:25.556Z,20.05
2022-07-26T02:07:52.100Z,20.10
2022-07-26T02:10:18.995Z,20.12
2022-07-26T02:12:45.517Z,20.20
2022-07-26T02:15:13.778Z,20.18
2022-07-26T02:17:40.644Z,20.08
2022-07-26T02:20:08.373Z,20.06
2022-07-26T02:22:35.608Z,20.14
2022-07-26T02:25:05.210Z,20.06
2022-07-26T02:27:32.857Z,20.01
2022-07-26T02:29:59.428Z,19.99
2022-07-26T02:32:26.103Z,19.97
2022-07-26T02:34:52.603Z,19.95
2022-07-26T02:37:19.112Z,19.87
2022-07-26T02:39:45.625Z,19.84
2022-07-26T02:42:12.160Z,19.85
2022-07-26T02:44:38.690Z,19.80
2022-07-26T02:47:05.229Z,19.68
2022-07-26T02:49:31.837Z,19.75
2022-07-26T02:51:58.352Z,19.80
2022-07-26T02:54:24.838Z,19.74
2022-07-26T02:56:51.311Z,19.69
2022-07-26T02:59:17.834Z,19.71
2022-07-26T03:01:44.390Z,19.63
2022-07-26T03:04:11.315Z,19.67
2022-07-26T03:06:38.174Z,19.62
2022-07-26T03:09:04.880Z,19.53
2022-07-26T03:11:31.470Z,19.58
2022-07-26T03:13:57.952Z,19.47
2022-07-26T03:16:29.000Z,19.30
2022-07-26T03:18:55.955Z,19.24
2022-07-26T03:21:22.468Z,19.19
2022-07-26T03:23:48.952Z,19.16
2022-07-26T03:26:15.612Z,19.21
2022-07-26T03:28:42.616Z,19.21
2022-07-26T03:31:09.302Z,19.24
2022-07-26T03:33:36.193Z,19.20
2022-07-26T03:36:03.220Z,19.21
2022-07-26T03:38:30.181Z,19.24
2022-07-26T03:40:56.707Z,19.22
2022-07-26T03:43:23.594Z,19.18
2022-07-26T03:45:50.896Z,19.20
2022-07-26T03:48:20.725Z,19.19
2022-07-26T03:50:47.289Z,19.18
2022-07-26T03:53:14.197Z,19.18
2022-07-26T03:55:59.344Z,19.18
2022-07-26T03:58:25.811Z,19.20
2022-07-26T04:00:52.327Z,19.18
2022-07-26T04:03:19.385Z,19.21
2022-07-26T04:05:48.925Z,19.23
2022-07-26T04:08:16.387Z,19.18
2022-07-26T04:10:47.995Z,19.11
2022-07-26T04:13:14.347Z,19.08
2022-07-26T04:15:40.823Z,19.16
2022-07-26T04:18:07.347Z,19.16
2022-07-26T04:20:33.830Z,19.20
2022-07-26T04:23:00.377Z,19.16
2022-07-26T04:25:26.971Z,19.09
2022-07-26T04:28:05.549Z,19.20
2022-07-26T04:30:32.196Z,19.21
2022-07-26T04:32:58.792Z,19.13
2022-07-26T04:35:25.950Z,19.23
2022-07-26T04:37:52.467Z,19.22
2022-07-26T04:40:21.643Z,19.22
2022-07-26T04:42:51.634Z,19.23
2022-07-26T04:45:18.827Z,19.34
2022-07-26T04:47:50.264Z,19.32
2022-07-26T04:50:21.597Z,19.42
2022-07-26T04:52:49.228Z,19.37
2022-07-26T04:55:16.841Z,19.50
2022-07-26T04:57:43.791Z,19.57
2022-07-26T05:00:22.304Z,19.52
2022-07-26T05:02:51.627Z,19.58
2022-07-26T05:05:18.188Z,19.49
2022-07-26T05:07:46.761Z,19.43
2022-07-26T05:10:15.007Z,19.46
2022-07-26T05:12:41.670Z,19.44
2022-07-26T05:15:13.945Z,19.47
2022-07-26T05:17:42.757Z,19.52
2022-07-26T05:20:11.336Z,19.66
2022-07-26T05:22:38.479Z,19.63
2022-07-26T05:25:06.611Z,19.63
2022-07-26T05:27:33.108Z,19.75
2022-07-26T05:29:59.660Z,19.74
2022-07-26T05:32:28.050Z,19.67
2022-07-26T05:34:54.649Z,19.62
2022-07-26T05:37:21.297Z,19.63
2022-07-26T05:39:47.771Z,19.66
2022-07-26T05:42:14.223Z,19.75
2022-07-26T05:44:42.396Z,19.86
2022-07-26T05:47:09.731Z,20.04
2022-07-26T05:49:40.515Z,20.11
2022-07-26T05:52:08.260Z,20.13
2022-07-26T05:54:35.433Z,20.13
2022-07-26T05:57:02.419Z,20.24
2022-07-26T05:59:29.007Z,19.98
2022-07-26T06:01:56.647Z,20.20
2022-07-26T06:04:26.047Z,20.06
2022-07-26T06:06:54.641Z,20.18
2022-07-26T06:09:24.928Z,20.29
2022-07-26T06:11:51.891Z,20.36
2022-07-26T06:14:19.209Z,20.28
2022-07-26T06:16:48.921Z,20.25
2022-07-26T06:19:15.893Z,20.30
2022-07-26T06:21:42.750Z,20.44
2022-07-26T06:24:09.633Z,20.45
2022-07-26T06:26:36.735Z,20.52
2022-07-26T06:29:03.356Z,20.46
2022-07-26T06:31:29.884Z,20.47
2022-07-26T06:33:56.777Z,20.52
2022-07-26T06:36:26.150Z,20.44
2022-07-26T06:38:56.524Z,20.55
2022-07-26T06:41:23.257Z,20.52
2022-07-26T06:43:49.759Z,20.60
2022-07-26T06:46:16.994Z,20.55
2022-07-26T06:48:47.489Z,20.59
2022-07-26T06:51:19.376Z,20.71
2022-07-26T06:53:45.838Z,20.68
2022-07-26T06:56:14.844Z,20.78
2022-07-26T06:58:42.187Z,20.76
2022-07-26T07:01:08.686Z,20.89
2022-07-26T07:03:35.289Z,21.03
2022-07-26T07:06:01.847Z,21.17
2022-07-26T07:08:29.027Z,21.19
2022-07-26T07:10:56.751Z,21.27
2022-07-26T07:13:23.427Z,21.27
2022-07-26T07:15:49.994Z,21.44
2022-07-26T07:18:16.542Z,21.62
2022-07-26T07:20:43.021Z,21.28
2022-07-26T07:23:09.517Z,21.36
2022-07-26T07:25:36.024Z,21.66
2022-07-26T07:28:02.534Z,21.96
2022-07-26T07:30:29.176Z,21.98
2022-07-26T07:32:56.545Z,21.98
2022-07-26T07:35:23.591Z,21.68
2022-07-26T07:37:53.823Z,21.90
2022-07-26T07:40:21.351Z,22.05
2022-07-26T07:42:47.871Z,22.08
2022-07-26T07:45:14.937Z,22.20
2022-07-26T07:47:41.623Z,22.60
2022-07-26T07:50:08.727Z,22.31
2022-07-26T07:52:35.298Z,22.59
2022-07-26T07:55:36.431Z,22.86
2022-07-26T07:57:48.347Z,22.63
2022-07-26T08:00:16.776Z,22.98
2022-07-26T08:02:45.040Z,22.74
2022-07-26T08:05:15.397Z,23.27
2022-07-26T08:07:42.463Z,22.69
2022-07-26T08:10:09.301Z,22.49
2022-07-26T08:12:36.144Z,22.66
2022-07-26T08:15:07.259Z,22.20
2022-07-26T08:17:34.761Z,22.01
2022-07-26T08:20:05.080Z,22.41
2022-07-26T08:22:34.543Z,22.57
2022-07-26T08:25:00.985Z,22.86
2022-07-26T08:27:27.531Z,22.61
2022-07-26T08:29:54.120Z,22.21
2022-07-26T08:32:20.742Z,21.75
2022-07-26T08:34:47.348Z,21.88
2022-07-26T08:37:17.595Z,22.01
2022-07-26T08:39:46.716Z,22.17
2022-07-26T08:42:15.885Z,22.33
2022-07-26T08:44:47.214Z,22.26
2022-07-26T08:47:35.186Z,22.12
2022-07-26T08:50:06.867Z,21.96
2022-07-26T08:52:33.562Z,21.90
2022-07-26T08:55:00.031Z,22.00
2022-07-26T08:57:26.510Z,21.88
2022-07-26T09:00:25.570Z,22.07
2022-07-26T09:02:53.422Z,22.06
2022-07-26T09:05:25.991Z,21.90
2022-07-26T09:07:52.467Z,21.71
2022-07-26T09:10:19.013Z,21.71
2022-07-26T09:12:45.973Z,21.67
2022-07-26T09:15:26.805Z,21.98
2022-07-26T09:17:55.960Z,21.84
2022-07-26T09:20:28.097Z,22.06
2022-07-26T09:22:59.790Z,21.71
2022-07-26T09:25:28.077Z,21.77
2022-07-26T09:27:55.041Z,21.71
2022-07-26T09:30:22.625Z,21.85
2022-07-26T09:33:03.570Z,21.81
2022-07-26T09:35:50.557Z,21.58
2022-07-26T09:38:18.500Z,21.74
2022-07-26T09:40:46.770Z,21.84
2022-07-26T09:43:21.852Z,22.25
2022-07-26T09:46:03.081Z,22.96
2022-07-26T09:48:36.673Z,23.42
2022-07-26T09:51:14.117Z,23.40
2022-07-26T09:53:45.891Z,23.35
2022-07-26T09:56:13.498Z,24.11
2022-07-26T09:58:40.850Z,23.15
2022-07-26T10:01:07.997Z,22.92
2022-07-26T10:03:35.438Z,23.01
2022-07-26T10:06:03.605Z,22.86
2022-07-26T10:08:31.378Z,22.51
2022-07-26T10:11:06.194Z,22.38
2022-07-26T10:13:32.970Z,22.57
2022-07-26T10:15:59.602Z,22.82
2022-07-26T10:18:39.001Z,22.68
2022-07-26T10:21:18.698Z,22.56
2022-07-26T10:23:47.337Z,22.65
2022-07-26T10:26:33.838Z,22.42
2022-07-26T10:29:20.968Z,22.31
2022-07-26T10:32:01.133Z,22.05
2022-07-26T10:34:32.947Z,22.17
2022-07-26T10:37:05.426Z,21.97
2022-07-26T10:39:32.174Z,21.99
2022-07-26T10:42:01.383Z,21.90
2022-07-26T10:44:41.371Z,22.02
2022-07-26T10:47:07.828Z,22.10
2022-07-26T10:49:56.130Z,22.40
2022-07-26T10:52:26.269Z,22.58
2022-07-26T10:55:03.443Z,22.61
2022-07-26T10:57:32.141Z,22.68
2022-07-26T11:00:00.470Z,22.37
2022-07-26T11:02:32.617Z,22.55
2022-07-26T11:05:03.890Z,22.02
2022-07-26T11:07:31.707Z,22.17
2022-07-26T11:09:59.275Z,22.09
2022-07-26T11:12:26.177Z,22.38
2022-07-26T11:14:54.199Z,22.24
2022-07-26T11:17:28.824Z,22.58
2022-07-26T11:19:56.102Z,22.60
2022-07-26T11:22:32.266Z,22.79
2022-07-26T11:24:58.782Z,22.99
2022-07-26T11:27:25.348Z,23.15
2022-07-26T11:29:51.870Z,23.89
2022-07-26T11:32:23.112Z,23.26
2022-07-26T11:35:01.037Z,23.16
2022-07-26T11:37:27.827Z,23.53
2022-07-26T11:39:54.297Z,24.20
2022-07-26T11:42:22.003Z,23.86
2022-07-26T11:44:49.929Z,23.27
2022-07-26T11:47:19.595Z,22.69
2022-07-26T11:49:59.989Z,22.80
2022-07-26T11:52:31.755Z,22.45
2022-07-26T11:54:58.673Z,22.48
2022-07-26T11:57:30.666Z,22.34
2022-07-26T11:59:58.794Z,22.54
2022-07-26T12:02:26.171Z,22.26
2022-07-26T12:05:13.278Z,22.31
2022-07-26T12:07:52.248Z,22.77
2022-07-26T12:10:18.747Z,22.25
2022-07-26T12:12:45.264Z,21.97
2022-07-26T12:15:13.496Z,21.55
2022-07-26T12:17:58.466Z,20.85
2022-07-26T12:20:27.925Z,20.74
2022-07-26T12:23:04.933Z,20.44
2022-07-26T12:25:32.088Z,20.47
2022-07-26T12:27:58.799Z,20.38
2022-07-26T12:30:25.759Z,20.05
2022-07-26T12:33:02.075Z,20.00
2022-07-26T12:35:38.009Z,19.85
2022-07-26T12:38:04.684Z,20.40
2022-07-26T12:40:41.048Z,20.55
2022-07-26T12:43:08.646Z,20.56
2022-07-26T12:45:36.101Z,20.60
2022-07-26T12:48:10.092Z,20.73
2022-07-26T12:50:36.657Z,20.66
2022-07-26T12:53:08.818Z,20.61
2022-07-26T12:55:36.078Z,20.53
2022-07-26T12:58:02.786Z,20.56
2022-07-26T13:00:30.009Z,20.60
2022-07-26T13:02:57.730Z,20.62
2022-07-26T13:05:24.447Z,20.49
2022-07-26T13:07:55.435Z,20.69
2022-07-26T13:10:33.209Z,20.71
2022-07-26T13:13:00.455Z,20.68
2022-07-26T13:15:36.261Z,20.52
2022-07-26T13:18:06.746Z,20.57
2022-07-26T13:20:33.345Z,20.38
2022-07-26T13:22:59.853Z,20.54
2022-07-26T13:25:29.078Z,20.45
2022-07-26T13:28:05.059Z,20.61
2022-07-26T13:30:31.781Z,20.65
2022-07-26T13:32:58.309Z,20.59
2022-07-26T13:35:24.790Z,20.77
2022-07-26T13:37:51.234Z,20.88
2022-07-26T13:40:17.741Z,20.85
2022-07-26T13:42:44.261Z,20.82
2022-07-26T13:45:11.401Z,20.97
2022-07-26T13:47:37.932Z,20.95
2022-07-26T13:50:04.782Z,21.00
2022-07-26T13:52:33.701Z,21.18
2022-07-26T13:55:00.162Z,21.16
2022-07-26T13:57:49.501Z,21.34
2022-07-26T14:00:13.731Z,21.33
2022-07-26T14:02:40.343Z,21.38
2022-07-26T14:05:07.216Z,21.51
2022-07-26T14:07:33.811Z,21.57
2022-07-26T14:10:00.307Z,21.42
2022-07-26T14:12:26.809Z,21.26
2022-07-26T14:14:53.274Z,21.41
2022-07-26T14:17:19.770Z,21.29
2022-07-26T14:19:46.297Z,21.52
2022-07-26T14:22:13.468Z,21.40
2022-07-26T14:24:40.042Z,21.48
2022-07-26T14:27:06.563Z,21.47
2022-07-26T14:29:33.101Z,21.56
2022-07-26T14:32:02.390Z,21.58
2022-07-26T14:34:29.049Z,21.37
2022-07-26T14:36:55.660Z,21.49
2022-07-26T14:39:22.146Z,21.50
2022-07-26T14:41:48.660Z,21.52
2022-07-26T14:44:15.173Z,21.62
2022-07-26T14:46:43.814Z,21.78
2022-07-26T14:49:10.455Z,21.85
2022-07-26T14:51:37.134Z,21.90
2022-07-26T14:54:04.670Z,22.00
2022-07-26T14:56:31.362Z,21.94
2022-07-26T14:58:57.851Z,21.97
2022-07-26T15:01:24.447Z,22.01
2022-07-26T15:03:50.987Z,22.03
2022-07-26T15:06:17.530Z,22.08
2022-07-26T15:08:44.025Z,22.00
2022-07-26T15:11:10.632Z,21.82
2022-07-26T15:13:37.156Z,21.63
2022-07-26T15:16:03.941Z,21.56
2022-07-26T15:18:31.295Z,21.60
2022-07-26T15:20:57.962Z,21.70
2022-07-26T15:23:24.996Z,21.87
2022-07-26T15:25:51.512Z,21.96
2022-07-26T15:28:18.448Z,21.66
2022-07-26T15:30:45.124Z,21.89
2022-07-26T15:33:11.791Z,21.67
2022-07-26T15:35:40.558Z,21.75
2022-07-26T15:38:07.509Z,21.81
2022-07-26T15:40:34.023Z,21.74
2022-07-26T15:43:00.584Z,21.44
2022-07-26T15:45:28.083Z,21.34
2022-07-26T15:48:09.377Z,21.52
2022-07-26T15:50:44.564Z,21.77
2022-07-26T15:53:11.081Z,21.82
2022-07-26T15:55:37.562Z,21.76
2022-07-26T15:58:05.049Z,21.67
2022-07-26T16:00:31.681Z,21.65
2022-07-26T16:02:58.248Z,21.77
2022-07-26T16:05:24.859Z,21.70
2022-07-26T16:07:51.323Z,21.72
2022-07-26T16:10:17.976Z,21.75
2022-07-26T16:12:44.624Z,21.81
2022-07-26T16:15:11.960Z,21.67
2022-07-26T16:17:39.278Z,21.72
2022-07-26T16:20:07.017Z,21.94
2022-07-26T16:22:34.396Z,21.94
2022-07-26T16:25:01.113Z,21.90
2022-07-26T16:27:27.623Z,21.80
2022-07-26T16:29:54.278Z,21.84
2022-07-26T16:32:21.602Z,21.92
2022-07-26T16:34:48.362Z,21.92
2022-07-26T16:37:14.942Z,21.83
2022-07-26T16:39:41.436Z,21.79
2022-07-26T16:42:07.967Z,21.73
2022-07-26T16:44:36.111Z,21.71
2022-07-26T16:47:02.994Z,21.79
2022-07-26T16:49:29.677Z,21.59
2022-07-26T16:51:56.856Z,21.44
2022-07-26T16:54:23.440Z,21.58
2022-07-26T16:56:50.043Z,21.54
2022-07-26T16:59:17.307Z,21.64
2022-07-26T17:01:44.426Z,21.61
2022-07-26T17:04:10.997Z,21.58
2022-07-26T17:06:37.539Z,21.45
2022-07-26T17:09:04.275Z,21.46
2022-07-26T17:11:30.867Z,21.35
2022-07-26T17:13:57.442Z,21.35
2022-07-26T17:16:25.096Z,21.36
2022-07-26T17:18:53.297Z,21.30
2022-07-26T17:21:19.965Z,21.46
2022-07-26T17:23:46.586Z,21.49
2022-07-26T17:26:13.075Z,21.37
2022-07-26T17:28:39.575Z,21.41
2022-07-26T17:31:06.210Z,21.44
2022-07-26T17:33:32.869Z,21.43
2022-07-26T17:36:03.249Z,21.30
2022-07-26T17:38:31.097Z,21.31
2022-07-26T17:40:57.599Z,21.25
2022-07-26T17:43:25.206Z,21.18
2022-07-26T17:46:03.668Z,21.16
2022-07-26T17:48:30.346Z,21.11
2022-07-26T17:50:56.889Z,21.16
2022-07-26T17:53:31.719Z,21.12
2022-07-26T17:56:01.832Z,21.08
2022-07-26T17:58:28.413Z,21.03
2022-07-26T18:00:54.903Z,21.01
2022-07-26T18:03:22.264Z,20.68
2022-07-26T18:05:50.150Z,20.80
2022-07-26T18:08:16.877Z,20.71
2022-07-26T18:10:47.599Z,20.67
2022-07-26T18:13:17.695Z,20.72
2022-07-26T18:15:44.391Z,20.73
2022-07-26T18:18:11.000Z,20.67
2022-07-26T18:20:37.524Z,20.53
2022-07-26T18:23:04.121Z,20.57
2022-07-26T18:25:30.693Z,20.51
2022-07-26T18:27:57.248Z,20.53
2022-07-26T18:30:23.962Z,20.49
2022-07-26T18:32:50.582Z,20.44
2022-07-26T18:35:17.090Z,20.40
2022-07-26T18:37:43.589Z,20.39
2022-07-26T18:40:10.353Z,20.35
2022-07-26T18:42:37.855Z,20.28
2022-07-26T18:45:04.812Z,20.23
2022-07-26T18:47:31.393Z,20.17
2022-07-26T18:49:57.926Z,20.20
2022-07-26T18:52:31.667Z,20.20
2022-07-26T18:54:59.468Z,20.14
2022-07-26T18:57:25.932Z,20.10
2022-07-26T18:59:52.460Z,20.04
2022-07-26T19:02:19.092Z,19.99
2022-07-26T19:04:45.558Z,19.92
2022-07-26T19:07:12.067Z,19.86
2022-07-26T19:09:38.550Z,19.88
2022-07-26T19:12:05.159Z,19.78
2022-07-26T19:14:31.700Z,19.79
2022-07-26T19:16:58.273Z,19.73
2022-07-26T19:19:24.732Z,19.69
2022-07-26T19:21:51.203Z,19.67
2022-07-26T19:24:17.737Z,19.62
2022-07-26T19:26:44.269Z,19.60
2022-07-26T19:29:11.148Z,19.59
2022-07-26T19:31:40.246Z,19.55
2022-07-26T19:34:06.882Z,19.62
2022-07-26T19:36:33.490Z,19.59
2022-07-26T19:39:01.219Z,19.56
2022-07-26T19:41:27.882Z,19.54
2022-07-26T19:43:54.481Z,19.44
2022-07-26T19:46:21.098Z,19.42
2022-07-26T19:48:47.692Z,19.40
2022-07-26T19:51:14.267Z,19.25
2022-07-26T19:53:40.787Z,19.24
2022-07-26T19:56:07.865Z,19.28
2022-07-26T19:58:34.426Z,19.21
2022-07-26T20:01:01.095Z,19.24
2022-07-26T20:03:27.690Z,19.16
2022-07-26T20:05:55.633Z,19.13
2022-07-26T20:08:22.447Z,19.06
2022-07-26T20:10:48.984Z,19.04
2022-07-26T20:13:15.514Z,19.07
2022-07-26T20:15:42.729Z,18.98
2022-07-26T20:18:10.379Z,18.94
2022-07-26T20:20:36.997Z,18.92
2022-07-26T20:23:05.957Z,18.90
2022-07-26T20:25:32.725Z,18.82
2022-07-26T20:27:59.596Z,18.78
2022-07-26T20:30:26.293Z,18.85
2022-07-26T20:32:52.862Z,18.89
2022-07-26T20:35:19.436Z,18.90
2022-07-26T20:37:45.939Z,18.84
2022-07-26T20:40:13.390Z,18.81
2022-07-26T20:42:44.386Z,18.78
2022-07-26T20:45:12.894Z,18.77
2022-07-26T20:47:42.881Z,18.69
2022-07-26T20:50:10.637Z,18.61
2022-07-26T20:52:37.388Z,18.57
2022-07-26T20:55:04.487Z,18.53
2022-07-26T20:57:31.047Z,18.52
2022-07-26T20:59:57.544Z,18.47
2022-07-26T21:02:24.110Z,18.44
2022-07-26T21:04:50.702Z,18.46
2022-07-26T21:07:17.207Z,18.45
2022-07-26T21:09:43.701Z,18.40
2022-07-26T21:12:10.388Z,18.46
2022-07-26T21:14:36.900Z,18.42
2022-07-26T21:17:07.898Z,18.35
2022-07-26T21:19:37.624Z,18.33
2022-07-26T21:22:04.167Z,18.27
2022-07-26T21:24:30.749Z,18.33
2022-07-26T21:26:57.312Z,18.20
2022-07-26T21:29:23.895Z,18.21
2022-07-26T21:31:50.367Z,18.21
2022-07-26T21:34:16.976Z,18.21
2022-07-26T21:36:43.689Z,18.20
2022-07-26T21:39:10.766Z,18.17
2022-07-26T21:41:38.099Z,18.21
2022-07-26T21:44:05.097Z,18.21
2022-07-26T21:46:31.768Z,18.24
2022-07-26T21:48:58.441Z,18.26
2022-07-26T21:51:24.941Z,18.27
2022-07-26T21:53:51.457Z,18.20
2022-07-26T21:56:18.108Z,18.18
2022-07-26T21:58:44.566Z,18.22
2022-07-26T22:01:13.541Z,18.26
2022-07-26T22:03:41.801Z,18.24
2022-07-26T22:06:09.603Z,18.16
2022-07-26T22:08:36.532Z,18.17
2022-07-26T22:11:03.873Z,18.12
2022-07-26T22:13:30.966Z,18.13
2022-07-26T22:15:57.640Z,18.09
2022-07-26T22:18:24.233Z,18.09
2022-07-26T22:20:50.798Z,18.07
2022-07-26T22:23:18.818Z,18.07
2022-07-26T22:25:46.047Z,18.05
2022-07-26T22:28:18.348Z,18.03
2022-07-26T22:30:45.867Z,17.97
2022-07-26T22:33:12.425Z,18.01
2022-07-26T22:35:39.064Z,17.90
2022-07-26T22:38:08.333Z,17.94
2022-07-26T22:40:35.753Z,17.87
2022-07-26T22:43:02.365Z,17.92
2022-07-26T22:45:30.231Z,17.83
2022-07-26T22:47:57.486Z,17.85
2022-07-26T22:50:25.060Z,17.87
2022-07-26T22:52:52.242Z,17.80
2022-07-26T22:55:19.066Z,17.77
2022-07-26T22:57:45.636Z,17.75
2022-07-26T23:00:14.111Z,17.71
2022-07-26T23:02:41.008Z,17.71
2022-07-26T23:05:08.612Z,17.76
2022-07-26T23:07:35.446Z,17.74
2022-07-26T23:10:02.904Z,17.76
2022-07-26T23:12:29.436Z,17.78
2022-07-26T23:14:55.925Z,17.71
2022-07-26T23:17:22.470Z,17.70
2022-07-26T23:19:48.962Z,17.72
2022-07-26T23:22:15.506Z,17.69
2022-07-26T23:24:43.528Z,17.73
2022-07-26T23:27:10.482Z,17.74
2022-07-26T23:29:37.201Z,17.70
2022-07-26T23:32:03.917Z,17.68
2022-07-26T23:34:30.547Z,17.60
2022-07-26T23:36:57.003Z,17.58
2022-07-26T23:39:23.502Z,17.56
2022-07-26T23:41:49.966Z,17.59
2022-07-26T23:44:17.246Z,17.60
2022-07-26T23:46:43.783Z,17.45
2022-07-26T23:49:10.886Z,17.47
2022-07-26T23:51:38.886Z,17.40
2022-07-26T23:54:05.827Z,17.41
2022-07-26T23:56:32.332Z,17.40
2022-07-26T23:58:58.785Z,17.39
